Time;durP1;ratioP1;P1;durP2;ratioP2;P2;SDS_P1;SDS_P2;PMS_P1;PMS_P2;Temp;Humidity;BMP_temperature;BMP_pressure;BME280_temperature;BME280_humidity;BME280_pressure;Samples;Min_cycle;Max_cycle;Signal;HPM_P1;HPM_P2
2022/08/08 00:00:16;;;;;;;4.20;1.17;;;;;;;15.78;93.41;98589.31;1703529;84;20886;-59
2022/08/08 00:03:13;;;;;;;3.02;0.85;;;;;;;15.81;93.35;98590.05;1703492;84;20871;-61
2022/08/08 00:06:14;;;;;;;8.05;1.40;;;;;;;15.82;93.38;98586.26;1703395;84;21018;-60
2022/08/08 00:08:50;;;;;;;5.15;1.40;;;;;;;15.85;93.45;98590.25;1702992;84;20958;-61
2022/08/08 00:11:28;;;;;;;4.58;1.30;;;;;;;15.87;93.61;98592.08;1703246;84;20994;-59
2022/08/08 00:14:28;;;;;;;4.15;1.12;;;;;;;15.88;93.71;98587.70;1703236;84;20930;-59
2022/08/08 00:17:36;;;;;;;2.70;1.15;;;;;;;15.91;93.83;98581.70;1703297;84;20942;-60
2022/08/08 00:20:06;;;;;;;4.00;1.27;;;;;;;15.94;93.98;98585.13;1703259;84;20859;-60
2022/08/08 00:22:47;;;;;;;2.72;1.47;;;;;;;15.98;94.02;98588.00;1703382;84;22256;-60
2022/08/08 00:25:26;;;;;;;2.98;1.20;;;;;;;15.99;94.05;98587.67;1703209;84;20923;-60
2022/08/08 00:27:56;;;;;;;6.87;1.30;;;;;;;15.99;94.03;98583.63;1702876;84;20931;-60
2022/08/08 00:30:22;;;;;;;6.72;1.10;;;;;;;16.00;93.94;98574.42;1703531;84;21458;-60
2022/08/08 00:32:55;;;;;;;5.37;1.10;;;;;;;16.00;94.01;98581.18;1703400;84;21073;-60
2022/08/08 00:35:52;;;;;;;4.67;1.30;;;;;;;16.03;93.88;98579.21;1697286;84;21223;-60
2022/08/08 00:38:47;;;;;;;4.37;1.22;;;;;;;16.05;93.94;98576.99;1703195;84;20945;-60
2022/08/08 00:41:37;;;;;;;4.10;1.07;;;;;;;16.08;94.06;98580.44;1703286;84;21010;-60
2022/08/08 00:44:33;;;;;;;2.95;1.10;;;;;;;16.12;94.19;98577.34;1703272;84;20953;-60
2022/08/08 00:47:49;;;;;;;4.83;0.93;;;;;;;16.18;94.44;98581.48;1703089;84;20911;-60
2022/08/08 00:51:06;;;;;;;4.08;1.22;;;;;;;16.20;94.56;98575.79;1703591;84;21493;-60
2022/08/08 00:54:01;;;;;;;4.92;1.50;;;;;;;16.22;94.51;98583.83;1703212;84;20863;-60
2022/08/08 00:57:00;;;;;;;4.03;1.30;;;;;;;16.26;94.24;98579.93;1703503;84;20923;-59
2022/08/08 01:00:01;;;;;;;9.08;1.35;;;;;;;16.26;94.14;98579.93;1703473;84;21496;-59
2022/08/08 01:03:00;;;;;;;4.87;1.20;;;;;;;16.26;94.41;98576.68;1682989;84;20997;-60
2022/08/08 01:06:05;;;;;;;4.62;1.10;;;;;;;16.32;94.75;98581.41;1703340;84;21264;-60
2022/08/08 01:09:26;;;;;;;4.83;1.27;;;;;;;16.36;94.87;98579.11;1702928;84;21403;-60
2022/08/08 01:12:18;;;;;;;5.90;1.50;;;;;;;16.40;94.84;98580.61;1702656;84;20891;-59
2022/08/08 01:15:10;;;;;;;3.42;1.20;;;;;;;16.41;94.63;98575.46;1703254;84;21136;-59
2022/08/08 01:18:18;;;;;;;2.08;1.10;;;;;;;16.42;94.57;98567.58;1708516;83;20993;-60
2022/08/08 01:20:56;;;;;;;3.60;1.30;;;;;;;16.43;94.73;98567.28;1703292;84;21072;-59
2022/08/08 01:23:52;;;;;;;5.92;1.15;;;;;;;16.48;94.75;98571.75;1703324;84;20894;-59
2022/08/08 01:26:40;;;;;;;4.17;1.90;;;;;;;16.53;94.93;98574.34;1703284;84;20970;-59
2022/08/08 01:29:13;;;;;;;3.35;1.37;;;;;;;16.58;94.68;98569.33;1703266;84;20907;-59
2022/08/08 01:32:12;;;;;;;4.65;1.40;;;;;;;16.57;94.43;98568.53;1703323;84;20871;-59
2022/08/08 01:34:58;;;;;;;3.02;1.12;;;;;;;16.56;94.30;98571.56;1703366;84;21226;-59
2022/08/08 01:38:08;;;;;;;2.53;1.30;;;;;;;16.56;94.17;98575.61;1703477;84;20890;-59
2022/08/08 01:41:00;;;;;;;4.20;1.47;;;;;;;16.53;93.94;98572.18;1702992;84;20953;-59
2022/08/08 01:44:06;;;;;;;3.27;1.00;;;;;;;16.48;93.75;98574.45;1703500;84;21473;-59
2022/08/08 01:46:55;;;;;;;3.22;1.10;;;;;;;16.46;93.73;98575.32;1705017;84;20942;-59
2022/08/08 01:50:23;;;;;;;7.30;1.40;;;;;;;16.43;94.18;98576.74;1702942;84;21306;-60
2022/08/08 01:53:18;;;;;;;2.60;1.20;;;;;;;16.42;94.64;98579.19;1703481;84;21069;-59
2022/08/08 01:56:24;;;;;;;4.40;1.50;;;;;;;16.44;95.04;98581.02;1691205;84;21427;-60
2022/08/08 01:59:16;;;;;;;2.80;1.30;;;;;;;16.48;95.12;98581.75;1703490;84;20935;-59
2022/08/08 02:02:22;;;;;;;3.30;1.27;;;;;;;16.43;95.25;98575.39;1703529;84;21402;-60
2022/08/08 02:04:57;;;;;;;4.28;1.30;;;;;;;16.42;95.54;98578.39;1703725;84;21076;-59
2022/08/08 02:07:56;;;;;;;3.30;1.45;;;;;;;16.40;95.84;98578.71;1703340;84;20930;-59
2022/08/08 02:10:53;;;;;;;3.75;1.22;;;;;;;16.42;96.19;98576.48;1704463;83;20927;-60
2022/08/08 02:13:33;;;;;;;4.12;1.40;;;;;;;16.50;96.53;98574.13;1702805;84;21497;-60
2022/08/08 02:16:24;;;;;;;14.80;2.15;;;;;;;16.57;96.67;98575.84;1703307;84;20938;-59
2022/08/08 02:18:56;;;;;;;5.08;1.60;;;;;;;16.61;96.57;98576.80;1703262;84;21124;-60
2022/08/08 02:24:29;;;;;;;5.70;1.50;;;;;;;16.61;96.55;98578.15;1703462;84;20994;-60
2022/08/08 02:27:18;;;;;;;5.50;1.65;;;;;;;16.64;96.67;98582.38;1703367;84;20938;-59
2022/08/08 02:30:10;;;;;;;11.45;1.65;;;;;;;16.68;96.87;98585.24;1703425;84;20910;-59
2022/08/08 02:33:05;;;;;;;5.58;1.77;;;;;;;16.75;96.95;98577.45;1703420;84;22050;-60
2022/08/08 02:35:44;;;;;;;3.87;1.47;;;;;;;16.81;96.78;98578.92;1703324;84;20895;-59
2022/08/08 02:38:26;;;;;;;4.28;1.55;;;;;;;16.81;96.58;98588.38;1702551;84;20954;-60
2022/08/08 02:41:10;;;;;;;7.05;1.70;;;;;;;16.80;96.53;98584.08;1703363;84;20943;-60
2022/08/08 02:44:24;;;;;;;6.60;1.62;;;;;;;16.80;96.45;98585.42;1702855;84;20962;-59
2022/08/08 02:47:28;;;;;;;6.72;1.75;;;;;;;16.78;96.41;98588.46;1703402;84;21120;-58
2022/08/08 02:50:27;;;;;;;4.40;2.10;;;;;;;16.80;96.39;98581.37;1702473;84;21390;-59
2022/08/08 02:53:27;;;;;;;4.10;1.60;;;;;;;16.79;96.30;98582.50;1703478;84;20938;-60
2022/08/08 02:56:28;;;;;;;4.30;1.70;;;;;;;16.79;96.13;98587.91;1703351;84;20918;-60
2022/08/08 02:59:34;;;;;;;4.60;1.57;;;;;;;16.76;95.89;98585.83;1703398;84;20935;-60
2022/08/08 03:02:25;;;;;;;2.62;1.50;;;;;;;16.72;95.80;98590.28;1703366;84;21128;-60
2022/08/08 03:05:00;;;;;;;7.10;1.70;;;;;;;16.68;95.85;98586.05;1703268;84;20974;-59
2022/08/08 03:07:50;;;;;;;;;;;;;;;16.68;95.99;98594.70;1705988;84;20985;-60
2022/08/08 03:10:42;;;;;;;4.05;1.67;;;;;;;16.67;95.97;98588.52;1663747;84;20090;-59
2022/08/08 03:13:31;;;;;;;3.27;1.87;;;;;;;16.70;96.00;98590.58;1703456;84;20990;-60
2022/08/08 03:16:33;;;;;;;3.85;1.50;;;;;;;16.75;95.73;98590.98;1683487;84;21473;-59
2022/08/08 03:19:39;;;;;;;6.25;1.60;;;;;;;16.77;95.40;98592.27;1703380;84;20942;-60
2022/08/08 03:22:06;;;;;;;5.87;1.77;;;;;;;16.76;95.27;98581.77;1643928;86;21026;-59
2022/08/08 03:24:34;;;;;;;4.15;2.05;;;;;;;16.79;95.16;98587.91;1683775;84;21470;-60
2022/08/08 03:27:11;;;;;;;3.47;1.42;;;;;;;16.81;94.83;98587.84;1703425;84;21416;-60
2022/08/08 03:29:40;;;;;;;5.60;2.00;;;;;;;16.84;94.73;98587.77;1703077;84;21536;-59
2022/08/08 03:34:53;;;;;;;2.62;1.42;;;;;;;16.96;94.63;98590.06;1703569;84;20891;-60
2022/08/08 03:37:19;;;;;;;5.58;1.80;;;;;;;17.01;94.52;98587.76;1703296;84;20950;-60
2022/08/08 03:39:45;;;;;;;5.78;1.70;;;;;;;17.06;94.48;98595.73;1703354;84;20930;-60
2022/08/08 03:42:16;;;;;;;3.60;1.75;;;;;;;17.02;93.93;98594.78;1703310;84;21229;-60
2022/08/08 03:44:43;;;;;;;4.72;1.80;;;;;;;16.95;93.78;98593.91;1703351;84;20930;-60
2022/08/08 03:47:10;;;;;;;6.95;1.70;;;;;;;16.91;93.71;98597.56;1703301;84;20875;-60
2022/08/08 03:49:38;;;;;;;5.72;1.70;;;;;;;16.86;93.79;98599.06;1703260;84;20997;-60
2022/08/08 03:52:05;;;;;;;5.17;1.92;;;;;;;16.86;93.91;98607.17;1703667;84;20879;-60
2022/08/08 03:54:32;;;;;;;3.45;1.75;;;;;;;16.88;93.73;98603.59;1703489;84;22082;-60
2022/08/08 03:56:59;;;;;;;3.75;1.50;;;;;;;16.87;93.61;98612.26;1703333;84;20930;-60
2022/08/08 03:59:29;;;;;;;4.05;1.72;;;;;;;16.82;93.74;98612.95;1703387;84;21044;-60
2022/08/08 04:01:56;;;;;;;6.75;1.75;;;;;;;16.82;94.00;98619.17;1703367;84;21001;-60
2022/08/08 04:04:23;;;;;;;6.35;1.67;;;;;;;16.87;94.27;98619.57;1703391;84;20942;-60
2022/08/08 04:06:56;;;;;;;5.12;1.40;;;;;;;16.94;94.41;98618.00;1703288;84;21117;-60
2022/08/08 04:09:24;;;;;;;6.35;1.70;;;;;;;16.99;94.38;98616.50;1703489;84;21398;-59
2022/08/08 04:11:51;;;;;;;5.03;1.80;;;;;;;17.01;94.30;98619.68;1703361;84;20867;-60
2022/08/08 04:14:18;;;;;;;6.08;2.00;;;;;;;17.04;94.22;98622.31;1703366;84;20914;-60
2022/08/08 04:16:45;;;;;;;7.00;2.25;;;;;;;17.09;94.21;98618.11;1703317;84;20930;-60
2022/08/08 04:19:13;;;;;;;7.87;2.15;;;;;;;17.14;94.16;98622.02;1703595;84;21998;-60
2022/08/08 04:21:39;;;;;;;8.30;2.08;;;;;;;17.17;93.94;98619.23;1703320;84;20978;-60
2022/08/08 04:24:06;;;;;;;7.40;2.22;;;;;;;17.19;93.83;98620.51;1703286;84;21018;-59
2022/08/08 04:26:33;;;;;;;5.40;2.27;;;;;;;17.23;93.74;98619.30;1703244;84;20918;-59
2022/08/08 04:28:59;;;;;;;4.37;2.22;;;;;;;17.28;93.59;98616.44;1703312;84;20928;-60
2022/08/08 04:31:27;;;;;;;7.45;2.45;;;;;;;17.34;93.65;98621.37;1703267;84;21256;-60
2022/08/08 04:33:53;;;;;;;7.30;2.58;;;;;;;17.42;93.43;98620.58;1703331;84;20934;-59
2022/08/08 04:36:20;;;;;;;5.08;2.60;;;;;;;17.50;93.43;98623.83;1703381;84;20937;-59
2022/08/08 04:38:47;;;;;;;5.92;2.10;;;;;;;17.58;93.27;98628.48;1703331;84;21488;-59
2022/08/08 04:41:13;;;;;;;5.65;2.52;;;;;;;17.63;92.77;98629.68;1703246;84;20997;-59
2022/08/08 04:43:40;;;;;;;8.20;2.67;;;;;;;17.67;92.43;98631.98;1703281;84;21115;-60
2022/08/08 04:46:07;;;;;;;6.25;2.50;;;;;;;17.72;91.77;98626.40;1703256;84;20981;-59
2022/08/08 04:48:34;;;;;;;7.78;3.05;;;;;;;17.76;91.29;98624.62;1703246;84;20902;-59
2022/08/08 04:51:01;;;;;;;5.72;2.90;;;;;;;17.78;90.91;98618.33;1706805;84;20982;-60
2022/08/08 04:53:29;;;;;;;6.17;2.67;;;;;;;17.82;90.90;98622.55;1703308;84;21006;-59
2022/08/08 04:55:58;;;;;;;9.60;2.60;;;;;;;17.86;90.80;98624.05;1703241;84;21498;-59
2022/08/08 04:58:26;;;;;;;8.25;2.90;;;;;;;17.89;90.38;98631.55;1703269;84;20993;-60
2022/08/08 05:00:53;;;;;;;6.60;2.70;;;;;;;17.90;90.25;98637.22;1703255;84;20930;-60
2022/08/08 05:03:20;;;;;;;5.30;2.40;;;;;;;17.93;90.14;98633.84;1703345;84;20903;-60
2022/08/08 05:05:47;;;;;;;5.35;2.05;;;;;;;17.96;89.73;98634.56;1703341;84;21143;-60
2022/08/08 05:08:14;;;;;;;3.40;1.70;;;;;;;17.99;89.59;98636.63;1703247;84;21905;-60
2022/08/08 05:10:41;;;;;;;3.37;1.72;;;;;;;18.05;89.43;98640.75;1703310;84;20923;-60
2022/08/08 05:13:08;;;;;;;4.45;1.87;;;;;;;18.10;89.19;98639.22;1703423;84;21073;-60
2022/08/08 05:15:36;;;;;;;4.95;1.77;;;;;;;18.15;88.82;98642.56;1703286;84;21042;-60
2022/08/08 05:18:03;;;;;;;3.60;1.82;;;;;;;18.22;88.54;98634.73;1702501;84;21009;-60
2022/08/08 05:20:30;;;;;;;5.75;1.60;;;;;;;18.23;88.02;98640.38;1703120;84;21083;-60
2022/08/08 05:22:56;;;;;;;4.47;1.50;;;;;;;18.27;88.02;98640.53;1703211;84;21017;-60
2022/08/08 05:25:24;;;;;;;4.37;1.55;;;;;;;18.35;87.94;98645.11;1703475;84;21474;-59
2022/08/08 05:27:52;;;;;;;3.62;1.42;;;;;;;18.45;88.04;98646.12;1702382;84;20990;-59
2022/08/08 05:30:18;;;;;;;5.72;1.52;;;;;;;18.60;87.05;98648.88;1702884;84;20953;-59
2022/08/08 05:32:46;;;;;;;5.45;1.60;;;;;;;18.65;86.74;98646.80;1702191;84;21251;-60
2022/08/08 05:35:15;;;;;;;5.20;1.35;;;;;;;18.74;86.01;98655.68;1702467;84;20965;-59
2022/08/08 05:37:52;;;;;;;5.85;1.50;;;;;;;18.80;86.06;98661.14;1702924;84;20946;-58
2022/08/08 05:40:20;;;;;;;4.15;1.40;;;;;;;18.89;85.15;98660.53;1702556;83;20952;-58
2022/08/08 05:42:54;;;;;;;4.45;1.10;;;;;;;18.97;84.99;98659.70;1698494;84;21064;-59
2022/08/08 05:45:19;;;;;;;9.85;1.80;;;;;;;19.08;84.93;98655.47;1698116;84;21878;-58
2022/08/08 05:47:45;;;;;;;6.80;1.70;;;;;;;19.24;85.08;98658.97;1698822;84;20924;-59
2022/08/08 05:50:12;;;;;;;7.00;1.80;;;;;;;19.39;85.31;98648.88;1696556;84;21129;-61
2022/08/08 05:52:39;;;;;;;6.37;1.80;;;;;;;19.47;84.78;98646.67;1683678;84;21498;-59
2022/08/08 05:55:08;;;;;;;4.87;1.47;;;;;;;19.50;84.16;98650.09;1694626;83;21060;-59
2022/08/08 05:57:37;;;;;;;3.52;1.72;;;;;;;19.47;83.70;98645.31;1692838;84;21241;-60
2022/08/08 06:00:11;;;;;;;7.12;1.40;;;;;;;19.44;83.67;98647.33;1663066;84;21040;-60
2022/08/08 06:05:57;;;;;;;3.45;1.87;;;;;;;19.46;83.57;98654.58;1690175;84;20886;-59
2022/08/08 06:08:35;;;;;;;4.78;1.70;;;;;;;19.45;83.62;98655.17;1676801;85;21534;-59
2022/08/08 06:11:04;;;;;;;3.30;1.60;;;;;;;19.50;83.48;98651.45;1705758;83;21511;-59
2022/08/08 06:13:31;;;;;;;5.78;1.80;;;;;;;19.54;83.32;98659.16;1701284;84;21036;-59
2022/08/08 06:15:58;;;;;;;2.00;1.40;;;;;;;19.58;82.68;98657.36;1700393;84;21456;-60
2022/08/08 06:18:28;;;;;;;4.10;1.60;;;;;;;19.61;82.44;98666.22;1685125;84;20934;-60
2022/08/08 06:21:00;;;;;;;8.50;1.92;;;;;;;19.64;82.41;98662.84;1697804;84;36828;-60
2022/08/08 06:23:27;;;;;;;4.08;1.47;;;;;;;19.71;81.48;98665.81;1714927;83;21782;-59
2022/08/08 06:26:04;;;;;;;7.30;1.60;;;;;;;19.80;80.40;98670.61;1694160;83;21083;-60
2022/08/08 06:28:51;;;;;;;3.60;1.40;;;;;;;19.88;80.63;98670.30;1707094;83;21123;-59
2022/08/08 06:31:24;;;;;;;7.25;1.57;;;;;;;19.95;79.39;98674.63;1677487;84;20991;-59
2022/08/08 06:34:16;;;;;;;5.95;1.60;;;;;;;20.07;79.01;98670.00;1695134;84;21127;-61
2022/08/08 06:36:44;;;;;;;3.62;1.50;;;;;;;20.19;78.43;98663.24;1700065;83;21119;-57
2022/08/08 06:39:15;;;;;;;9.93;2.22;;;;;;;20.32;77.99;98663.55;1696137;84;21000;-57
2022/08/08 06:42:01;;;;;;;5.20;1.60;;;;;;;20.41;77.15;98661.52;1695018;84;22031;-61
2022/08/08 06:44:29;;;;;;;17.70;1.60;;;;;;;20.46;76.55;98663.22;1656480;85;21085;-61
2022/08/08 06:46:58;;;;;;;3.70;1.50;;;;;;;20.51;75.43;98663.00;1704777;82;21075;-60
2022/08/08 06:49:26;;;;;;;3.22;1.05;;;;;;;20.50;74.46;98660.59;1692711;83;21133;-63
2022/08/08 06:51:53;;;;;;;2.72;1.32;;;;;;;20.44;73.04;98659.45;1708160;83;21579;-63
2022/08/08 06:54:21;;;;;;;4.08;1.55;;;;;;;20.37;72.82;98656.50;1704194;82;20986;-60
2022/08/08 06:56:50;;;;;;;2.98;1.50;;;;;;;20.35;73.18;98661.48;1711073;82;21125;-60
2022/08/08 06:59:17;;;;;;;2.67;1.22;;;;;;;20.41;73.17;98657.44;1706109;82;21056;-60
2022/08/08 07:01:47;;;;;;;53.90;3.52;;;;;;;20.55;72.79;98660.37;1710948;82;21118;-59
2022/08/08 07:04:31;;;;;;;23.15;2.85;;;;;;;20.68;72.11;98660.04;1731024;82;20859;-58
2022/08/08 07:07:01;;;;;;;5.60;1.37;;;;;;;20.79;71.70;98663.12;1722187;82;21049;-59
2022/08/08 07:09:51;;;;;;;3.60;1.40;;;;;;;20.95;72.48;98665.38;1649333;85;21046;-58
2022/08/08 07:12:26;;;;;;;8.10;1.42;;;;;;;21.07;70.80;98661.31;1725483;82;21078;-60
2022/08/08 07:15:04;;;;;;;4.70;1.65;;;;;;;21.24;70.21;98666.52;1714530;82;21038;-58
2022/08/08 07:17:45;;;;;;;3.77;1.45;;;;;;;21.35;68.66;98673.06;1725223;82;21075;-60
2022/08/08 07:20:19;;;;;;;3.47;1.40;;;;;;;21.36;67.57;98664.33;1648129;85;21053;-58
2022/08/08 07:23:15;;;;;;;4.47;1.40;;;;;;;21.34;67.10;98670.11;1657648;85;21534;-59
2022/08/08 07:25:44;;;;;;;5.80;1.75;;;;;;;21.35;67.45;98662.73;1663609;85;21122;-59
2022/08/08 07:28:14;;;;;;;3.90;1.60;;;;;;;21.39;67.65;98665.78;1654765;85;21320;-59
2022/08/08 07:30:42;;;;;;;3.55;1.17;;;;;;;21.43;67.52;98664.54;1655815;85;21030;-59
2022/08/08 07:33:14;;;;;;;6.25;1.32;;;;;;;21.51;66.87;98664.39;1720336;82;21009;-59
2022/08/08 07:35:43;;;;;;;5.55;1.30;;;;;;;21.60;66.24;98663.67;1709771;83;21402;-60
2022/08/08 07:38:12;;;;;;;8.53;1.25;;;;;;;21.66;65.90;98665.60;1634079;86;20992;-59
2022/08/08 07:40:44;;;;;;;5.55;1.20;;;;;;;21.66;64.54;98667.77;1666370;83;21641;-59
2022/08/08 07:43:12;;;;;;;3.95;1.10;;;;;;;21.66;65.35;98659.59;1694368;84;21088;-60
2022/08/08 07:45:44;;;;;;;11.48;1.37;;;;;;;21.72;65.09;98659.55;1697051;84;21088;-59
2022/08/08 07:48:11;;;;;;;7.25;1.20;;;;;;;21.78;63.45;98667.72;1695565;84;21048;-59
2022/08/08 07:50:39;;;;;;;2.37;1.00;;;;;;;21.78;64.19;98663.62;1697965;84;21471;-59
2022/08/08 07:53:22;;;;;;;4.87;1.15;;;;;;;21.82;64.51;98669.17;1698838;83;21102;-60
2022/08/08 07:55:50;;;;;;;2.50;1.10;;;;;;;21.90;64.49;98677.02;1712688;82;20936;-59
2022/08/08 07:58:33;;;;;;;3.62;1.20;;;;;;;22.05;64.23;98680.33;1706368;82;21031;-59
2022/08/08 08:01:14;;;;;;;3.15;1.10;;;;;;;22.08;63.54;98682.37;1706375;83;21458;-60
2022/08/08 08:03:54;;;;;;;8.35;1.02;;;;;;;22.00;63.42;98676.52;1693461;82;21487;-60
2022/08/08 08:06:22;;;;;;;2.47;0.80;;;;;;;21.91;61.79;98675.85;1686467;82;21074;-60
2022/08/08 08:08:55;;;;;;;2.30;1.10;;;;;;;21.91;61.84;98673.13;1691248;82;20896;-59
2022/08/08 08:11:24;;;;;;;2.55;1.10;;;;;;;22.04;61.28;98667.86;1706150;84;20972;-59
2022/08/08 08:14:05;;;;;;;5.03;1.67;;;;;;;22.17;59.87;98670.73;1700551;84;21401;-59
2022/08/08 08:16:39;;;;;;;3.50;1.30;;;;;;;22.21;59.11;98672.41;1692444;84;21050;-60
2022/08/08 08:19:08;;;;;;;3.65;1.80;;;;;;;22.20;58.83;98672.77;1704702;84;21668;-60
2022/08/08 08:21:47;;;;;;;2.90;1.50;;;;;;;22.18;58.53;98676.42;1705522;83;21031;-60
2022/08/08 08:24:15;;;;;;;3.67;1.40;;;;;;;22.12;59.26;98676.44;1700363;82;20973;-60
2022/08/08 08:26:42;;;;;;;3.17;1.20;;;;;;;22.07;59.45;98680.80;1696851;84;20904;-59
2022/08/08 08:29:09;;;;;;;2.65;1.10;;;;;;;21.97;59.61;98682.66;1679559;84;21068;-59
2022/08/08 08:31:37;;;;;;;3.58;1.15;;;;;;;21.86;59.76;98684.31;1697982;84;21120;-59
2022/08/08 08:34:04;;;;;;;2.85;1.30;;;;;;;21.75;59.52;98690.22;1659164;85;20972;-59
2022/08/08 08:36:30;;;;;;;1.67;0.95;;;;;;;21.66;60.19;98688.21;1676273;83;20979;-59
2022/08/08 08:38:58;;;;;;;3.15;1.20;;;;;;;21.56;58.02;98690.05;1661133;85;21096;-59
2022/08/08 08:41:29;;;;;;;3.27;1.42;;;;;;;21.41;56.96;98692.12;1699618;83;21039;-58
2022/08/08 08:43:56;;;;;;;2.42;0.85;;;;;;;21.28;57.82;98696.02;1712734;82;21112;-60
2022/08/08 08:46:23;;;;;;;1.98;1.00;;;;;;;21.21;58.30;98690.35;1703339;82;21030;-60
2022/08/08 08:48:53;;;;;;;3.42;1.00;;;;;;;21.15;58.52;98691.70;1692360;82;21128;-58
2022/08/08 08:51:20;;;;;;;2.20;0.90;;;;;;;21.11;58.98;98695.69;1692899;83;21675;-58
2022/08/08 08:53:52;;;;;;;3.52;0.90;;;;;;;21.10;58.67;98704.22;1689806;82;21085;-59
2022/08/08 08:56:23;;;;;;;3.40;0.90;;;;;;;21.06;58.47;98706.02;1676033;83;21079;-59
2022/08/08 08:58:51;;;;;;;2.45;1.00;;;;;;;21.11;58.67;98706.59;1732769;82;20874;-59
2022/08/08 09:01:22;;;;;;;4.00;0.95;;;;;;;21.18;58.98;98707.94;1749870;82;20961;-59
2022/08/08 09:03:49;;;;;;;3.37;0.90;;;;;;;21.28;59.12;98696.58;1741900;82;21323;-58
2022/08/08 09:06:23;;;;;;;2.50;0.90;;;;;;;21.40;59.59;98696.56;1730833;82;21060;-58
2022/08/08 09:08:55;;;;;;;1.37;0.80;;;;;;;21.51;60.43;98693.57;1750854;82;21209;-59
2022/08/08 09:11:22;;;;;;;3.62;0.90;;;;;;;21.57;59.79;98699.02;1740723;82;20929;-59
2022/08/08 09:13:49;;;;;;;4.67;1.10;;;;;;;21.60;60.39;98698.31;1692862;83;21042;-58
2022/08/08 09:16:17;;;;;;;2.08;0.88;;;;;;;21.68;60.89;98692.74;1703161;82;21030;-57
2022/08/08 09:18:44;;;;;;;2.87;0.90;;;;;;;21.80;62.25;98698.16;1706351;82;20985;-57
2022/08/08 09:21:10;;;;;;;2.00;1.00;;;;;;;21.93;60.73;98692.69;1704818;82;21078;-57
2022/08/08 09:23:37;;;;;;;1.55;0.90;;;;;;;22.02;61.51;98698.78;1696660;82;20985;-58
2022/08/08 09:26:38;;;;;;;1.75;0.60;;;;;;;22.15;61.30;98697.00;1698865;82;20991;-60
2022/08/08 09:29:13;;;;;;;2.47;1.00;;;;;;;22.31;61.20;98695.66;1683284;82;21001;-58
2022/08/08 09:31:55;;;;;;;2.30;0.93;;;;;;;22.42;60.72;98690.70;1708819;82;20990;-58
2022/08/08 09:34:24;;;;;;;3.33;0.80;;;;;;;22.49;59.38;98688.74;1701530;82;21135;-58
2022/08/08 09:36:56;;;;;;;2.02;1.17;;;;;;;22.53;60.95;98692.34;1705400;82;21560;-59
2022/08/08 09:39:23;;;;;;;1.70;0.70;;;;;;;22.63;60.01;98695.95;1689270;82;21080;-57
2022/08/08 09:42:02;;;;;;;4.08;0.95;;;;;;;22.71;60.00;98687.34;1710386;82;21387;-57
2022/08/08 09:44:57;;;;;;;2.52;0.95;;;;;;;22.80;58.72;98692.85;1714702;82;20985;-57
2022/08/08 09:47:29;;;;;;;3.85;0.72;;;;;;;22.88;58.61;98695.98;1709178;82;21229;-58
2022/08/08 09:49:57;;;;;;;2.27;1.00;;;;;;;23.04;55.91;98692.66;1710811;82;20969;-57
2022/08/08 09:52:23;;;;;;;6.03;0.80;;;;;;;23.12;55.68;98693.05;1725214;82;21095;-57
2022/08/08 09:54:50;;;;;;;1.52;0.90;;;;;;;23.21;55.56;98682.48;1720144;82;21091;-57
2022/08/08 09:57:19;;;;;;;2.95;1.20;;;;;;;23.22;55.28;98691.72;1707431;83;20929;-57
2022/08/08 09:59:46;;;;;;;1.77;0.93;;;;;;;23.18;54.40;98688.66;1703922;83;22530;-57
2022/08/08 10:02:18;;;;;;;3.15;0.88;;;;;;;23.09;53.28;98682.83;1713412;83;20985;-57
2022/08/08 10:04:46;;;;;;;6.92;1.60;;;;;;;23.08;53.30;98688.06;1711754;83;20901;-59
2022/08/08 10:07:14;;;;;;;2.10;1.00;;;;;;;23.13;53.36;98694.62;1710413;83;20924;-60
2022/08/08 10:09:42;;;;;;;3.12;0.93;;;;;;;23.09;52.87;98689.66;1680487;85;20937;-58
2022/08/08 10:12:09;;;;;;;1.60;0.80;;;;;;;23.00;52.42;98693.16;1709472;84;21126;-58
2022/08/08 10:14:37;;;;;;;9.30;3.92;;;;;;;22.92;52.36;98683.20;1709445;84;20936;-57
2022/08/08 10:17:07;;;;;;;11.75;3.58;;;;;;;22.94;54.52;98689.09;1710037;84;21377;-57
2022/08/08 10:19:39;;;;;;;3.75;1.30;;;;;;;23.07;54.74;98685.13;1704994;83;21026;-58
2022/08/08 10:22:07;;;;;;;13.13;4.22;;;;;;;23.21;53.23;98686.59;1702952;84;21107;-57
2022/08/08 10:24:34;;;;;;;13.13;3.25;;;;;;;23.32;53.57;98678.07;1716831;82;21075;-58
2022/08/08 10:27:05;;;;;;;1.85;1.12;;;;;;;23.44;54.04;98680.69;1715980;83;20989;-58
2022/08/08 10:30:04;;;;;;;3.05;0.98;;;;;;;23.54;52.35;98678.76;1718682;83;20924;-58
2022/08/08 10:32:31;;;;;;;6.85;1.17;;;;;;;23.56;52.25;98679.19;1717271;83;20937;-59
2022/08/08 10:34:59;;;;;;;4.42;1.20;;;;;;;23.55;52.05;98685.83;1710035;84;20987;-60
2022/08/08 10:37:28;;;;;;;2.47;1.10;;;;;;;23.51;52.68;98690.41;1689199;85;21788;-59
2022/08/08 10:39:55;;;;;;;3.27;1.15;;;;;;;23.45;51.89;98681.71;1710600;83;20897;-59
2022/08/08 10:42:23;;;;;;;2.58;1.10;;;;;;;23.42;52.50;98676.95;1709724;83;20937;-58
2022/08/08 10:45:00;;;;;;;2.62;1.10;;;;;;;23.46;53.35;98675.67;1705798;83;21456;-59
2022/08/08 10:47:26;;;;;;;2.58;1.00;;;;;;;23.56;53.11;98679.98;1706385;83;21017;-58
2022/08/08 10:49:56;;;;;;;3.12;1.20;;;;;;;23.64;53.90;98664.53;1705639;84;21261;-59
2022/08/08 10:52:33;;;;;;;2.15;1.07;;;;;;;23.74;53.52;98671.56;1711798;83;20926;-57
2022/08/08 10:55:04;;;;;;;3.02;1.30;;;;;;;23.83;52.40;98675.47;1710769;83;20950;-58
2022/08/08 10:57:44;;;;;;;5.00;1.15;;;;;;;23.98;54.08;98672.41;1710548;82;20970;-58
2022/08/08 11:00:14;;;;;;;5.60;2.05;;;;;;;24.10;51.08;98662.14;1681772;82;21044;-57
2022/08/08 11:02:41;;;;;;;5.47;1.35;;;;;;;24.16;52.35;98663.44;1736352;82;21041;-61
2022/08/08 11:05:10;;;;;;;50.50;13.38;;;;;;;24.18;53.14;98657.02;1718076;82;21063;-58
2022/08/08 11:07:40;;;;;;;80.00;18.95;;;;;;;24.22;52.33;98663.34;1701409;84;21445;-59
2022/08/08 11:10:10;;;;;;;4.03;1.47;;;;;;;24.17;51.30;98662.27;1704041;83;21538;-59
2022/08/08 11:12:55;;;;;;;3.52;1.20;;;;;;;24.03;50.64;98670.75;1699578;83;21091;-59
2022/08/08 11:15:27;;;;;;;3.33;1.40;;;;;;;23.87;51.06;98651.70;1703969;82;22103;-61
2022/08/08 11:17:55;;;;;;;4.42;1.32;;;;;;;23.83;50.58;98650.85;1725230;82;21015;-60
2022/08/08 11:20:26;;;;;;;11.97;3.10;;;;;;;23.88;51.55;98653.87;1703364;83;20941;-64
2022/08/08 11:23:01;;;;;;;5.47;1.85;;;;;;;23.96;51.33;98651.47;1709267;82;21576;-57
2022/08/08 11:25:30;;;;;;;49.55;13.90;;;;;;;24.11;52.44;98653.36;1694105;84;21402;-61
2022/08/08 11:27:59;;;;;;;2.60;1.42;;;;;;;24.25;52.43;98648.14;1709652;84;21740;-58
2022/08/08 11:30:30;;;;;;;9.88;3.08;;;;;;;24.38;50.68;98655.80;1710489;83;21298;-58
2022/08/08 11:33:03;;;;;;;6.42;1.22;;;;;;;24.49;51.63;98655.41;1702496;83;20968;-59
2022/08/08 11:35:29;;;;;;;3.08;1.25;;;;;;;24.80;52.53;98648.12;1700890;82;21101;-58
2022/08/08 11:37:57;;;;;;;1.67;1.30;;;;;;;25.18;51.62;98642.41;1714023;82;20901;-59
2022/08/08 11:40:23;;;;;;;2.62;1.22;;;;;;;25.54;50.86;98645.08;1712115;82;21249;-59
2022/08/08 11:42:50;;;;;;;9.75;2.77;;;;;;;25.75;48.21;98636.53;1721369;82;20942;-58
2022/08/08 11:45:17;;;;;;;3.77;1.40;;;;;;;25.65;47.87;98642.67;1728921;82;20888;-58
2022/08/08 11:47:43;;;;;;;4.55;1.42;;;;;;;25.43;48.74;98636.70;1690473;83;20919;-58
2022/08/08 11:50:12;;;;;;;3.83;1.25;;;;;;;25.43;48.74;98636.70;1713151;82;20982;-59
2022/08/08 11:52:39;;;;;;;3.05;1.35;;;;;;;25.33;48.46;98646.94;1712470;82;21060;-58
2022/08/08 11:55:18;;;;;;;2.92;1.00;;;;;;;25.25;48.64;98642.51;1717147;82;21072;-57
2022/08/08 11:57:45;;;;;;;3.40;1.12;;;;;;;25.25;48.04;98641.74;1738867;81;21062;-62
2022/08/08 12:00:17;;;;;;;2.62;1.07;;;;;;;25.38;48.72;98641.14;1725302;81;21116;-61
2022/08/08 12:02:56;;;;;;;4.65;1.30;;;;;;;25.94;47.44;98632.02;1710623;82;20993;-58
2022/08/08 12:05:33;;;;;;;2.25;1.02;;;;;;;26.33;46.30;98630.51;1700923;83;21767;-61
2022/08/08 12:08:00;;;;;;;6.45;1.30;;;;;;;26.33;46.30;98630.51;1685954;83;20925;-58
2022/08/08 12:10:29;;;;;;;6.50;1.65;;;;;;;26.64;44.63;98638.82;1710446;82;21362;-60
2022/08/08 12:13:03;;;;;;;4.92;1.20;;;;;;;26.90;46.58;98642.17;1714428;82;20992;-61
2022/08/08 12:15:32;;;;;;;1.70;1.10;;;;;;;27.09;44.72;98643.28;1721158;82;21065;-61
2022/08/08 12:17:59;;;;;;;3.58;1.35;;;;;;;27.02;43.63;98644.62;1712691;82;21154;-55
2022/08/08 12:20:40;;;;;;;2.27;1.10;;;;;;;26.73;43.06;98642.82;1740297;81;21573;-59
2022/08/08 12:23:07;;;;;;;5.65;1.10;;;;;;;26.57;43.53;98629.91;1701368;83;20949;-58